createdAt,value
2022-11-23T00:00:37.868Z,8.38
2022-11-23T00:02:45.271Z,7.30
2022-11-23T00:04:50.120Z,10.70
2022-11-23T00:06:55.014Z,7.97
2022-11-23T00:09:01.038Z,9.75
2022-11-23T00:11:06.078Z,13.05
2022-11-23T00:13:10.998Z,10.27
2022-11-23T00:15:18.737Z,8.52
2022-11-23T00:17:23.537Z,9.80
2022-11-23T00:19:28.330Z,6.35
2022-11-23T00:21:35.580Z,9.80
2022-11-23T00:23:40.751Z,7.72
2022-11-23T00:27:52.064Z,8.73
2022-11-23T00:29:56.856Z,6.78
2022-11-23T00:32:04.235Z,10.13
2022-11-23T00:34:09.084Z,7.95
2022-11-23T00:36:15.962Z,7.75
2022-11-23T00:38:20.769Z,9.65
2022-11-23T00:40:27.117Z,9.32
2022-11-23T00:42:37.680Z,7.65
2022-11-23T00:44:42.976Z,8.07
2022-11-23T00:46:47.825Z,8.18
2022-11-23T00:48:57.580Z,14.55
2022-11-23T00:51:04.255Z,8.88
2022-11-23T00:53:09.241Z,8.80
2022-11-23T00:55:14.181Z,7.35
2022-11-23T00:57:18.941Z,7.53
2022-11-23T00:59:24.133Z,7.95
2022-11-23T01:01:31.048Z,6.75
2022-11-23T01:03:36.087Z,5.93
2022-11-23T01:05:43.803Z,6.57
2022-11-23T01:07:48.639Z,8.95
2022-11-23T01:09:53.432Z,7.18
2022-11-23T01:11:58.922Z,8.95
2022-11-23T01:14:04.215Z,7.05
2022-11-23T01:16:12.890Z,6.85
2022-11-23T01:18:17.644Z,7.80
2022-11-23T01:20:22.480Z,6.85
2022-11-23T01:22:29.869Z,6.13
2022-11-23T01:24:34.915Z,7.57
2022-11-23T01:26:39.695Z,4.75
2022-11-23T01:28:45.281Z,9.27
2022-11-23T01:30:50.178Z,6.60
2022-11-23T01:32:55.000Z,8.10
2022-11-23T01:34:59.788Z,5.97
2022-11-23T01:37:06.208Z,7.65
2022-11-23T01:39:14.625Z,6.78
2022-11-23T01:41:21.642Z,6.53
2022-11-23T01:43:26.474Z,4.47
2022-11-23T01:45:40.943Z,5.80
2022-11-23T01:47:46.880Z,8.10
2022-11-23T01:49:55.035Z,5.88
2022-11-23T01:52:05.341Z,5.25
2022-11-23T01:54:17.740Z,6.32
2022-11-23T01:56:27.810Z,4.38
2022-11-23T01:58:37.334Z,6.28
2022-11-23T02:00:42.746Z,6.68
2022-11-23T02:04:57.936Z,6.40
2022-11-23T02:07:04.557Z,8.85
2022-11-23T02:09:10.095Z,6.03
2022-11-23T02:11:19.834Z,6.40
2022-11-23T02:13:27.863Z,5.82
2022-11-23T02:15:32.725Z,7.15
2022-11-23T02:17:37.808Z,6.30
2022-11-23T02:19:57.265Z,7.00
2022-11-23T02:22:05.257Z,7.57
2022-11-23T02:24:15.505Z,4.95
2022-11-23T02:26:26.176Z,7.28
2022-11-23T02:28:35.551Z,7.25
2022-11-23T02:30:45.258Z,5.82
2022-11-23T02:32:50.376Z,6.93
2022-11-23T02:34:55.901Z,9.30
2022-11-23T02:37:00.921Z,6.30
2022-11-23T02:39:11.687Z,5.80
2022-11-23T02:41:17.378Z,6.97
2022-11-23T02:43:26.317Z,5.93
2022-11-23T02:45:39.592Z,4.68
2022-11-23T02:47:44.538Z,5.47
2022-11-23T02:49:50.985Z,6.68
2022-11-23T02:51:56.510Z,7.88
2022-11-23T02:54:04.097Z,5.05
2022-11-23T02:56:09.217Z,6.65
2022-11-23T02:58:14.353Z,6.47
2022-11-23T03:00:22.750Z,6.22
2022-11-23T03:02:27.568Z,7.35
2022-11-23T03:04:32.569Z,7.75
2022-11-23T03:06:37.679Z,6.18
2022-11-23T03:08:45.066Z,9.40
2022-11-23T03:10:50.875Z,7.05
2022-11-23T03:12:58.311Z,6.55
2022-11-23T03:15:04.989Z,6.60
2022-11-23T03:17:13.865Z,7.05
2022-11-23T03:19:21.389Z,7.72
2022-11-23T03:21:32.558Z,10.10
2022-11-23T03:23:44.595Z,6.32
2022-11-23T03:25:58.198Z,4.78
2022-11-23T03:28:05.653Z,5.60
2022-11-23T03:30:12.848Z,4.45
2022-11-23T03:32:20.311Z,6.10
2022-11-23T03:34:28.660Z,7.90
2022-11-23T03:36:34.288Z,7.53
2022-11-23T03:38:39.165Z,7.07
2022-11-23T03:40:55.060Z,7.95
2022-11-23T03:43:07.275Z,6.63
2022-11-23T03:45:13.075Z,4.57
2022-11-23T03:47:21.217Z,5.80
2022-11-23T03:49:25.955Z,9.05
2022-11-23T03:51:31.352Z,5.55
2022-11-23T03:53:36.229Z,5.95
2022-11-23T03:57:51.021Z,8.10
2022-11-23T03:59:55.868Z,8.82
2022-11-23T04:02:00.846Z,9.00
2022-11-23T04:04:13.000Z,7.53
2022-11-23T04:06:43.813Z,7.03
2022-11-23T04:09:00.508Z,5.57
2022-11-23T04:11:20.912Z,7.18
2022-11-23T04:13:27.707Z,8.07
2022-11-23T04:15:33.542Z,6.78
2022-11-23T04:17:38.803Z,4.55
2022-11-23T04:19:46.851Z,5.60
2022-11-23T04:21:53.053Z,8.27
2022-11-23T04:23:59.022Z,6.65
2022-11-23T04:26:05.169Z,7.65
2022-11-23T04:28:11.437Z,7.82
2022-11-23T04:32:23.276Z,7.60
2022-11-23T04:34:28.374Z,8.15
2022-11-23T04:36:35.807Z,11.82
2022-11-23T04:38:40.643Z,8.80
2022-11-23T04:40:46.393Z,9.82
2022-11-23T04:42:51.224Z,9.35
2022-11-23T04:44:57.453Z,8.18
2022-11-23T04:47:03.271Z,7.93
2022-11-23T04:49:09.626Z,7.55
2022-11-23T04:51:16.399Z,8.07
2022-11-23T04:53:23.907Z,9.20
2022-11-23T04:55:29.089Z,7.55
2022-11-23T04:57:36.086Z,7.75
2022-11-23T04:59:40.869Z,5.18
2022-11-23T05:01:46.007Z,8.00
2022-11-23T05:04:20.093Z,7.55
2022-11-23T05:06:26.604Z,7.05
2022-11-23T05:08:35.222Z,7.57
2022-11-23T05:11:03.114Z,8.43
2022-11-23T05:13:08.207Z,8.57
2022-11-23T05:15:16.109Z,7.28
2022-11-23T05:17:22.399Z,6.05
2022-11-23T05:19:30.131Z,7.97
2022-11-23T05:21:35.288Z,8.23
2022-11-23T05:23:43.256Z,11.25
2022-11-23T05:25:48.121Z,7.35
2022-11-23T05:27:55.841Z,7.88
2022-11-23T05:32:05.335Z,6.75
2022-11-23T05:34:10.772Z,7.68
2022-11-23T05:36:22.863Z,5.88
2022-11-23T05:38:28.430Z,7.22
2022-11-23T05:40:39.678Z,6.43
2022-11-23T05:42:45.974Z,6.60
2022-11-23T05:44:56.411Z,7.13
2022-11-23T05:47:09.959Z,8.52
2022-11-23T05:49:19.271Z,7.90
2022-11-23T05:51:24.025Z,8.07
2022-11-23T05:53:28.926Z,8.50
2022-11-23T05:55:43.240Z,9.55
2022-11-23T05:57:48.047Z,13.05
2022-11-23T05:59:54.311Z,10.90
2022-11-23T06:02:03.858Z,9.13
2022-11-23T06:04:10.975Z,9.88
2022-11-23T06:06:20.550Z,10.13
2022-11-23T06:08:25.470Z,8.05
2022-11-23T06:10:30.365Z,7.95
2022-11-23T06:12:38.038Z,9.65
2022-11-23T06:14:46.276Z,6.88
2022-11-23T06:16:54.145Z,7.47
2022-11-23T06:19:19.125Z,6.70
2022-11-23T06:21:23.991Z,8.73
2022-11-23T06:23:29.481Z,6.43
2022-11-23T06:25:38.496Z,11.27
2022-11-23T06:27:57.797Z,14.15
2022-11-23T06:30:08.933Z,8.18
2022-11-23T06:32:19.516Z,9.63
2022-11-23T06:34:25.125Z,6.75
2022-11-23T06:36:30.013Z,8.43
2022-11-23T06:38:36.349Z,12.20
2022-11-23T06:41:00.725Z,7.72
2022-11-23T06:43:09.906Z,8.57
2022-11-23T06:45:21.029Z,9.88
2022-11-23T06:47:30.542Z,11.15
2022-11-23T06:49:36.136Z,10.20
2022-11-23T06:51:54.046Z,10.57
2022-11-23T06:56:04.930Z,8.35
2022-11-23T06:58:13.069Z,9.05
2022-11-23T07:00:18.950Z,10.88
2022-11-23T07:02:23.859Z,12.10
2022-11-23T07:04:28.670Z,10.15
2022-11-23T07:06:33.524Z,10.02
2022-11-23T07:08:44.178Z,10.32
2022-11-23T07:11:12.480Z,11.52
2022-11-23T07:13:20.093Z,15.40
2022-11-23T07:15:25.000Z,12.60
2022-11-23T07:17:31.020Z,15.00
2022-11-23T07:19:35.963Z,11.27
2022-11-23T07:23:48.646Z,9.30
2022-11-23T07:25:53.485Z,10.07
2022-11-23T07:27:59.473Z,9.80
2022-11-23T07:30:08.887Z,8.88
2022-11-23T07:32:15.106Z,11.77
2022-11-23T07:34:19.963Z,7.53
2022-11-23T07:36:24.938Z,10.25
2022-11-23T07:38:29.760Z,11.43
2022-11-23T07:40:35.379Z,9.98
2022-11-23T07:42:44.799Z,12.32
2022-11-23T07:44:49.894Z,6.43
2022-11-23T07:46:58.450Z,8.45
2022-11-23T07:49:03.297Z,9.20
2022-11-23T07:51:08.176Z,6.95
2022-11-23T07:53:13.803Z,7.03
2022-11-23T07:55:18.828Z,7.32
2022-11-23T07:57:23.634Z,9.85
2022-11-23T07:59:28.534Z,10.05
2022-11-23T08:01:34.314Z,7.97
2022-11-23T08:03:41.813Z,10.23
2022-11-23T08:05:46.660Z,8.35
2022-11-23T08:07:51.419Z,6.70
2022-11-23T08:09:56.311Z,8.48
2022-11-23T08:12:01.188Z,10.10
2022-11-23T08:14:06.021Z,7.88
2022-11-23T08:16:10.789Z,9.45
2022-11-23T08:18:15.617Z,9.98
2022-11-23T08:20:23.100Z,9.23
2022-11-23T08:22:27.845Z,8.88
2022-11-23T08:24:32.996Z,9.65
2022-11-23T08:26:38.039Z,9.40
2022-11-23T08:28:42.820Z,11.60
2022-11-23T08:30:48.522Z,11.27
2022-11-23T08:32:53.295Z,10.75
2022-11-23T08:34:58.095Z,11.18
2022-11-23T08:37:05.416Z,11.48
2022-11-23T08:39:11.218Z,10.45
2022-11-23T08:41:18.219Z,12.45
2022-11-23T08:43:22.981Z,11.35
2022-11-23T08:45:27.950Z,12.07
2022-11-23T08:47:34.445Z,10.30
2022-11-23T08:49:39.253Z,11.75
2022-11-23T08:51:49.752Z,11.20
2022-11-23T08:53:57.639Z,8.32
2022-11-23T08:56:03.869Z,8.57
2022-11-23T08:58:13.142Z,8.20
2022-11-23T09:00:20.716Z,8.00
2022-11-23T09:02:25.507Z,10.93
2022-11-23T09:04:31.071Z,8.07
2022-11-23T09:06:36.191Z,8.63
2022-11-23T09:08:42.729Z,9.65
2022-11-23T09:10:50.079Z,7.50
2022-11-23T09:12:55.251Z,8.52
2022-11-23T09:15:00.025Z,10.30
2022-11-23T09:17:05.276Z,8.63
2022-11-23T09:21:14.633Z,12.20
2022-11-23T09:23:19.383Z,7.85
2022-11-23T09:25:27.263Z,9.32
2022-11-23T09:27:34.591Z,10.13
2022-11-23T09:29:39.389Z,8.02
2022-11-23T09:31:44.507Z,8.50
2022-11-23T09:33:49.279Z,10.57
2022-11-23T09:36:00.064Z,9.18
2022-11-23T09:38:04.925Z,9.57
2022-11-23T09:40:12.476Z,12.32
2022-11-23T09:42:54.805Z,10.63
2022-11-23T09:45:11.544Z,7.53
2022-11-23T09:47:41.910Z,8.20
2022-11-23T09:49:55.018Z,6.47
2022-11-23T09:52:00.006Z,8.48
2022-11-23T09:54:13.309Z,7.93
2022-11-23T09:56:22.534Z,9.50
2022-11-23T09:58:35.449Z,7.47
2022-11-23T10:00:45.409Z,8.13
2022-11-23T10:02:50.630Z,9.15
2022-11-23T10:07:13.280Z,7.72
2022-11-23T10:09:31.234Z,7.85
2022-11-23T10:12:06.793Z,10.23
2022-11-23T10:14:26.351Z,7.50
2022-11-23T10:16:41.558Z,16.13
2022-11-23T10:18:56.227Z,7.22
2022-11-23T10:21:09.457Z,8.98
2022-11-23T10:23:20.347Z,11.25
2022-11-23T10:25:27.267Z,10.90
2022-11-23T10:27:32.436Z,9.63
2022-11-23T10:31:54.154Z,10.30
2022-11-23T10:34:07.392Z,9.13
2022-11-23T10:36:13.883Z,8.13
2022-11-23T10:38:20.045Z,8.60
2022-11-23T10:40:28.664Z,6.50
2022-11-23T10:42:39.153Z,11.20
2022-11-23T10:44:48.277Z,9.40
2022-11-23T10:46:53.023Z,9.93
2022-11-23T10:48:58.784Z,7.30
2022-11-23T10:51:18.614Z,9.98
2022-11-23T10:53:28.552Z,7.65
2022-11-23T10:55:35.180Z,8.05
2022-11-23T10:57:45.833Z,8.40
2022-11-23T11:00:01.291Z,7.57
2022-11-23T11:02:18.467Z,10.38
2022-11-23T11:04:26.081Z,8.85
2022-11-23T11:06:34.279Z,8.48
2022-11-23T11:08:51.466Z,6.18
2022-11-23T11:11:02.205Z,9.95
2022-11-23T11:13:26.446Z,7.18
2022-11-23T11:15:36.230Z,10.15
2022-11-23T11:17:44.080Z,7.95
2022-11-23T11:21:53.608Z,5.68
2022-11-23T11:24:03.168Z,7.38
2022-11-23T11:26:19.798Z,6.47
2022-11-23T11:28:29.379Z,7.47
2022-11-23T11:30:53.640Z,4.57
2022-11-23T11:33:08.441Z,7.03
2022-11-23T11:35:21.082Z,7.57
2022-11-23T11:37:35.827Z,5.35
2022-11-23T11:39:47.246Z,9.13
2022-11-23T11:41:55.329Z,6.60
2022-11-23T11:44:07.961Z,5.63
2022-11-23T11:46:29.005Z,7.00
2022-11-23T11:48:39.602Z,7.13
2022-11-23T11:50:52.682Z,7.22
2022-11-23T11:53:03.407Z,5.13
2022-11-23T11:55:16.806Z,7.10
2022-11-23T11:57:25.276Z,6.90
2022-11-23T11:59:34.158Z,7.32
2022-11-23T12:01:51.415Z,6.28
2022-11-23T12:04:01.912Z,7.95
2022-11-23T12:06:12.295Z,6.82
2022-11-23T12:08:20.870Z,5.90
2022-11-23T12:10:30.774Z,5.95
2022-11-23T12:12:38.560Z,6.10
2022-11-23T12:14:43.390Z,5.78
2022-11-23T12:17:30.726Z,6.32
2022-11-23T12:19:30.524Z,5.88
2022-11-23T12:22:03.910Z,4.95
2022-11-23T12:24:18.640Z,4.15
2022-11-23T12:26:29.424Z,5.30
2022-11-23T12:28:52.957Z,6.80
2022-11-23T12:31:08.497Z,4.82
2022-11-23T12:33:43.387Z,5.40
2022-11-23T12:36:19.047Z,7.82
2022-11-23T12:38:33.816Z,5.43
2022-11-23T12:40:56.013Z,5.45
2022-11-23T12:43:04.814Z,4.60
2022-11-23T12:45:25.353Z,6.15
2022-11-23T12:47:41.740Z,6.30
2022-11-23T12:49:54.176Z,3.53
2022-11-23T12:52:12.840Z,5.03
2022-11-23T12:54:37.665Z,5.15
2022-11-23T12:57:07.735Z,4.97
2022-11-23T12:59:14.292Z,8.18
2022-11-23T13:01:30.472Z,6.40
2022-11-23T13:04:11.081Z,9.30
2022-11-23T13:07:05.579Z,5.22
2022-11-23T13:09:41.500Z,4.53
2022-11-23T13:12:04.002Z,4.13
2022-11-23T13:14:19.103Z,3.47
2022-11-23T13:16:34.486Z,6.22
2022-11-23T13:18:53.887Z,5.95
2022-11-23T13:21:12.373Z,6.90
2022-11-23T13:23:21.797Z,3.60
2022-11-23T13:25:28.991Z,7.32
2022-11-23T13:27:45.654Z,5.50
2022-11-23T13:30:01.183Z,4.72
2022-11-23T13:32:35.874Z,6.75
2022-11-23T13:34:51.139Z,5.75
2022-11-23T13:37:18.353Z,6.35
2022-11-23T13:40:03.768Z,4.90
2022-11-23T13:42:15.996Z,5.03
2022-11-23T13:44:25.080Z,8.73
2022-11-23T13:46:30.828Z,5.18
2022-11-23T13:49:01.057Z,4.50
2022-11-23T13:51:07.149Z,7.18
2022-11-23T13:53:25.458Z,4.47
2022-11-23T13:55:37.177Z,5.28
2022-11-23T13:57:49.831Z,4.35
2022-11-23T13:59:54.629Z,6.43
2022-11-23T14:02:29.253Z,5.78
2022-11-23T14:04:35.858Z,5.10
2022-11-23T14:06:51.438Z,3.72
2022-11-23T14:09:03.123Z,2.97
2022-11-23T14:11:17.592Z,5.78
2022-11-23T14:13:28.333Z,9.02
2022-11-23T14:15:36.781Z,5.68
2022-11-23T14:18:14.335Z,6.70
2022-11-23T14:20:40.223Z,8.85
2022-11-23T14:22:56.882Z,8.60
2022-11-23T14:25:19.353Z,6.65
2022-11-23T14:27:47.647Z,6.32
2022-11-23T14:30:08.241Z,6.20
2022-11-23T14:32:38.921Z,5.97
2022-11-23T14:34:56.374Z,4.57
2022-11-23T14:37:11.051Z,5.10
2022-11-23T14:39:54.840Z,7.72
2022-11-23T14:42:04.462Z,6.65
2022-11-23T14:44:14.366Z,5.55
2022-11-23T14:46:25.506Z,9.45
2022-11-23T14:48:32.099Z,7.70
2022-11-23T14:50:37.340Z,7.13
2022-11-23T14:52:42.124Z,8.93
2022-11-23T14:54:51.353Z,7.97
2022-11-23T14:57:00.547Z,9.73
2022-11-23T14:59:07.419Z,6.65
2022-11-23T15:01:24.503Z,8.27
2022-11-23T15:06:02.936Z,6.00
2022-11-23T15:08:13.308Z,9.10
2022-11-23T15:10:31.479Z,8.75
2022-11-23T15:12:44.921Z,10.32
2022-11-23T15:14:50.633Z,7.55
2022-11-23T15:16:58.421Z,7.47
2022-11-23T15:19:03.251Z,10.35
2022-11-23T15:21:25.373Z,9.13
2022-11-23T15:23:37.461Z,11.60
2022-11-23T15:25:53.977Z,18.55
2022-11-23T15:27:59.143Z,17.73
2022-11-23T15:30:04.004Z,17.92
2022-11-23T15:32:31.457Z,10.60
2022-11-23T15:34:38.074Z,10.23
2022-11-23T15:36:44.663Z,11.25
2022-11-23T15:38:49.746Z,8.75
2022-11-23T15:41:05.171Z,9.70
2022-11-23T15:43:15.549Z,9.65
2022-11-23T15:46:03.427Z,10.43
2022-11-23T15:48:16.844Z,11.48
2022-11-23T15:50:21.862Z,11.95
2022-11-23T15:52:26.689Z,13.20
2022-11-23T15:54:39.738Z,13.65
2022-11-23T15:56:49.173Z,12.02
2022-11-23T15:58:56.009Z,10.73
2022-11-23T16:01:08.602Z,8.98
2022-11-23T16:03:38.270Z,10.50
2022-11-23T16:05:43.099Z,12.23
2022-11-23T16:07:57.630Z,12.93
2022-11-23T16:10:20.150Z,9.20
2022-11-23T16:12:28.387Z,12.20
2022-11-23T16:14:35.170Z,11.10
2022-11-23T16:16:45.210Z,11.45
2022-11-23T16:18:57.899Z,11.68
2022-11-23T16:21:05.053Z,9.45
2022-11-23T16:23:19.350Z,7.05
2022-11-23T16:25:29.180Z,10.60
2022-11-23T16:27:34.091Z,9.10
2022-11-23T16:29:40.051Z,12.77
2022-11-23T16:31:54.673Z,10.10
2022-11-23T16:34:02.022Z,8.85
2022-11-23T16:36:07.323Z,11.10
2022-11-23T16:38:12.728Z,10.85
2022-11-23T16:42:22.373Z,10.73
2022-11-23T16:44:27.177Z,17.73
2022-11-23T16:46:32.104Z,13.80
2022-11-23T16:48:43.040Z,11.13
2022-11-23T16:50:50.439Z,9.25
2022-11-23T16:52:55.748Z,13.52
2022-11-23T16:55:00.511Z,13.27
2022-11-23T16:57:05.528Z,11.05
2022-11-23T16:59:19.650Z,12.20
2022-11-23T17:01:28.339Z,11.88
2022-11-23T17:03:34.291Z,11.82
2022-11-23T17:05:40.474Z,11.38
2022-11-23T17:07:51.406Z,13.45
2022-11-23T17:09:59.421Z,11.45
2022-11-23T17:12:05.582Z,14.95
2022-11-23T17:14:19.182Z,13.90
2022-11-23T17:16:26.971Z,15.82
2022-11-23T17:18:32.145Z,13.98
2022-11-23T17:20:37.444Z,10.55
2022-11-23T17:22:43.422Z,9.43
2022-11-23T17:24:52.786Z,11.15
2022-11-23T17:26:57.907Z,9.52
2022-11-23T17:29:06.824Z,12.20
2022-11-23T17:31:13.286Z,10.10
2022-11-23T17:33:18.408Z,11.43
2022-11-23T17:35:23.644Z,13.70
2022-11-23T17:37:29.592Z,11.60
2022-11-23T17:39:35.400Z,11.85
2022-11-23T17:41:43.403Z,12.90
2022-11-23T17:43:48.613Z,13.43
2022-11-23T17:45:53.934Z,16.00
2022-11-23T17:48:03.299Z,25.73
2022-11-23T17:50:14.129Z,23.63
2022-11-23T17:52:19.601Z,30.27
2022-11-23T17:54:25.131Z,30.73
2022-11-23T17:56:30.261Z,28.98
2022-11-23T17:58:37.807Z,33.53
2022-11-23T18:00:45.107Z,34.20
2022-11-23T18:02:50.181Z,22.90
2022-11-23T18:04:54.995Z,16.60
2022-11-23T18:06:59.714Z,10.85
2022-11-23T18:09:04.594Z,14.90
2022-11-23T18:11:09.643Z,14.25
2022-11-23T18:13:14.369Z,13.00
2022-11-23T18:15:21.800Z,9.57
2022-11-23T18:17:29.328Z,13.23
2022-11-23T18:19:34.647Z,11.93
2022-11-23T18:21:45.008Z,10.80
2022-11-23T18:23:50.126Z,14.05
2022-11-23T18:26:02.087Z,14.90
2022-11-23T18:28:07.406Z,13.88
2022-11-23T18:30:13.179Z,13.27
2022-11-23T18:32:24.648Z,13.82
2022-11-23T18:34:29.463Z,12.80
2022-11-23T18:36:35.002Z,11.25
2022-11-23T18:38:40.664Z,15.82
2022-11-23T18:40:46.738Z,16.08
2022-11-23T18:42:51.768Z,13.50
2022-11-23T18:44:56.842Z,17.10
2022-11-23T18:47:01.595Z,12.50
2022-11-23T18:49:09.044Z,17.25
2022-11-23T18:51:13.971Z,15.23
2022-11-23T18:53:18.949Z,14.10
2022-11-23T18:55:23.785Z,13.50
2022-11-23T18:57:28.624Z,13.65
2022-11-23T19:01:58.297Z,19.95
2022-11-23T19:04:03.303Z,12.13
2022-11-23T19:06:16.160Z,13.90
2022-11-23T19:08:20.995Z,15.45
2022-11-23T19:10:26.185Z,15.60
2022-11-23T19:14:35.756Z,14.45
2022-11-23T19:16:40.688Z,12.98
2022-11-23T19:18:46.175Z,13.98
2022-11-23T19:20:51.370Z,14.65
2022-11-23T19:25:03.717Z,15.00
2022-11-23T19:27:08.571Z,15.32
2022-11-23T19:29:16.630Z,19.52
2022-11-23T19:31:25.542Z,16.85
2022-11-23T19:33:32.617Z,15.55
2022-11-23T19:35:37.426Z,14.85
2022-11-23T19:37:44.712Z,15.00
2022-11-23T19:39:52.294Z,15.73
2022-11-23T19:42:00.300Z,17.58
2022-11-23T19:44:05.118Z,16.50
2022-11-23T19:46:12.411Z,16.98
2022-11-23T19:48:17.450Z,16.98
2022-11-23T19:50:22.254Z,19.15
2022-11-23T19:52:48.042Z,20.50
2022-11-23T19:54:54.506Z,16.13
2022-11-23T19:56:59.357Z,19.48
2022-11-23T19:59:04.424Z,19.73
2022-11-23T20:03:15.517Z,19.70
2022-11-23T20:05:21.515Z,19.35
2022-11-23T20:07:26.583Z,23.30
2022-11-23T20:09:31.720Z,24.25
2022-11-23T20:11:45.858Z,21.92
2022-11-23T20:13:53.249Z,22.30
2022-11-23T20:16:03.997Z,18.98
2022-11-23T20:18:08.885Z,20.60
2022-11-23T20:20:14.261Z,20.83
2022-11-23T20:22:18.998Z,16.90
2022-11-23T20:24:23.838Z,17.58
2022-11-23T20:26:29.343Z,19.58
2022-11-23T20:28:37.012Z,17.40
2022-11-23T20:30:41.935Z,17.48
2022-11-23T20:32:51.758Z,18.05
2022-11-23T20:34:56.800Z,18.75
2022-11-23T20:37:01.686Z,17.30
2022-11-23T20:39:08.472Z,18.58
2022-11-23T20:41:17.774Z,17.98
2022-11-23T20:43:22.525Z,20.52
2022-11-23T20:45:30.834Z,24.85
2022-11-23T20:47:35.632Z,18.50
2022-11-23T20:49:40.476Z,17.40
2022-11-23T20:51:45.393Z,16.85
2022-11-23T20:53:51.086Z,17.08
2022-11-23T20:56:04.115Z,18.98
2022-11-23T20:58:09.187Z,17.95
2022-11-23T21:00:16.968Z,21.27
2022-11-23T21:02:24.389Z,23.65
2022-11-23T21:04:29.321Z,25.15
2022-11-23T21:06:38.643Z,25.95
2022-11-23T21:08:50.521Z,18.10
2022-11-23T21:11:07.760Z,20.27
2022-11-23T21:13:29.023Z,20.23
2022-11-23T21:15:33.874Z,19.33
2022-11-23T21:17:41.405Z,20.60
2022-11-23T21:19:46.290Z,19.98
2022-11-23T21:21:51.658Z,18.40
2022-11-23T21:26:06.085Z,17.67
2022-11-23T21:28:10.932Z,16.55
2022-11-23T21:30:18.977Z,16.50
2022-11-23T21:32:23.831Z,18.58
2022-11-23T21:34:32.908Z,17.40
2022-11-23T21:36:40.192Z,22.95
2022-11-23T21:38:45.512Z,26.65
2022-11-23T21:40:50.306Z,33.25
2022-11-23T21:42:55.102Z,27.88
2022-11-23T21:45:00.047Z,22.92
2022-11-23T21:47:04.866Z,17.90
2022-11-23T21:49:10.586Z,17.23
2022-11-23T21:51:18.713Z,17.30
2022-11-23T21:53:23.574Z,17.15
2022-11-23T21:55:28.387Z,15.40
2022-11-23T21:57:33.202Z,14.90
2022-11-23T21:59:38.617Z,17.92
2022-11-23T22:01:44.267Z,18.70
2022-11-23T22:03:51.072Z,15.32
2022-11-23T22:05:59.497Z,15.95
2022-11-23T22:08:28.617Z,16.15
2022-11-23T22:10:32.943Z,14.50
2022-11-23T22:12:37.757Z,16.30
2022-11-23T22:14:44.902Z,14.68
2022-11-23T22:16:53.820Z,15.20
2022-11-23T22:18:59.542Z,16.17
2022-11-23T22:21:06.392Z,15.13
2022-11-23T22:23:15.210Z,15.32
2022-11-23T22:25:20.127Z,12.93
2022-11-23T22:27:25.000Z,15.02
2022-11-23T22:29:29.754Z,15.57
2022-11-23T22:31:35.558Z,16.25
2022-11-23T22:33:40.670Z,16.92
2022-11-23T22:35:47.723Z,15.00
2022-11-23T22:37:52.453Z,14.05
2022-11-23T22:39:59.817Z,13.35
2022-11-23T22:42:04.587Z,12.02
2022-11-23T22:44:11.438Z,12.82
2022-11-23T22:46:17.795Z,12.95
2022-11-23T22:48:22.907Z,11.88
2022-11-23T22:50:27.692Z,11.63
2022-11-23T22:52:32.499Z,13.05
2022-11-23T22:54:37.288Z,11.77
2022-11-23T22:56:44.627Z,12.05
2022-11-23T22:58:50.786Z,9.55
2022-11-23T23:00:56.147Z,11.48
2022-11-23T23:03:01.011Z,11.25
2022-11-23T23:07:10.843Z,11.93
2022-11-23T23:09:15.650Z,13.02
2022-11-23T23:11:21.271Z,11.32
2022-11-23T23:13:28.698Z,9.60
2022-11-23T23:15:33.448Z,13.15
2022-11-23T23:17:38.298Z,8.32
2022-11-23T23:19:43.038Z,9.23
2022-11-23T23:21:47.798Z,11.88
2022-11-23T23:23:54.431Z,8.60
2022-11-23T23:25:59.313Z,10.10
2022-11-23T23:28:04.055Z,9.55
2022-11-23T23:30:12.849Z,9.63
2022-11-23T23:32:17.642Z,10.93
2022-11-23T23:34:22.436Z,12.15
2022-11-23T23:36:27.687Z,9.10
2022-11-23T23:40:37.681Z,8.90
2022-11-23T23:44:48.245Z,12.18
2022-11-23T23:46:55.571Z,12.70
2022-11-23T23:49:01.357Z,9.18
2022-11-23T23:51:08.522Z,9.95
2022-11-23T23:53:16.427Z,8.43
2022-11-23T23:55:21.285Z,10.60
2022-11-23T23:57:26.070Z,9.25
2022-11-23T23:59:31.238Z,10.57
